Time;durP1;ratioP1;P1;durP2;ratioP2;P2;SDS_P1;SDS_P2;PMS_P1;PMS_P2;Temp;Humidity;BMP_temperature;BMP_pressure;BME280_temperature;BME280_humidity;BME280_pressure;Samples;Min_cycle;Max_cycle;Signal;HPM_P1;HPM_P2
2023/04/14 00:01:44;;;;;;;27.60;15.63;;;22.30;59.80;;;;;;4840791;29;20070;-66
2023/04/14 00:04:10;;;;;;;24.20;15.68;;;22.50;59.90;;;;;;4840999;29;20046;-68
2023/04/14 00:06:36;;;;;;;26.35;15.45;;;22.40;59.80;;;;;;4840742;29;20126;-67
2023/04/14 00:09:03;;;;;;;24.20;15.20;;;22.30;59.90;;;;;;4840960;29;20129;-67
2023/04/14 00:11:29;;;;;;;30.58;15.63;;;22.30;60.00;;;;;;4840482;29;20563;-66
2023/04/14 00:13:56;;;;;;;25.65;16.50;;;22.20;59.90;;;;;;4840269;29;20482;-67
2023/04/14 00:16:22;;;;;;;23.52;16.02;;;22.30;60.00;;;;;;4840770;29;20041;-67
2023/04/14 00:18:48;;;;;;;24.65;15.60;;;22.20;59.90;;;;;;4840688;29;20041;-67
2023/04/14 00:21:14;;;;;;;23.77;15.80;;;22.20;59.90;;;;;;4840560;29;20041;-67
2023/04/14 00:23:40;;;;;;;29.15;15.77;;;22.20;59.80;;;;;;4823611;29;20050;-67
2023/04/14 00:26:06;;;;;;;22.63;15.00;;;22.10;59.70;;;;;;4839467;29;20397;-67
2023/04/14 00:28:32;;;;;;;24.55;15.35;;;22.20;59.70;;;;;;4839004;29;20038;-67
2023/04/14 00:30:58;;;;;;;21.80;14.10;;;22.20;59.70;;;;;;4840399;29;20134;-67
2023/04/14 00:33:24;;;;;;;24.55;14.45;;;22.20;59.60;;;;;;4840501;29;20121;-67
2023/04/14 00:35:51;;;;;;;21.63;14.38;;;22.10;59.50;;;;;;4840759;29;20799;-67
2023/04/14 00:38:17;;;;;;;23.85;15.23;;;22.10;59.50;;;;;;4807856;29;20049;-67
2023/04/14 00:40:43;;;;;;;28.95;15.60;;;22.20;59.50;;;;;;4840214;29;20527;-67
2023/04/14 00:43:09;;;;;;;25.52;15.88;;;22.30;59.50;;;;;;4840743;29;20390;-67
2023/04/14 00:45:43;;;;;;;20.17;14.88;;;22.10;59.40;;;;;;4824018;29;20049;-67
2023/04/14 00:48:10;;;;;;;23.42;14.05;;;22.30;59.50;;;;;;4839018;29;20046;-66
2023/04/14 00:50:36;;;;;;;20.95;13.30;;;22.10;59.30;;;;;;4807650;29;20090;-66
2023/04/14 00:53:03;;;;;;;18.83;12.27;;;22.10;59.30;;;;;;4839104;29;20035;-67
2023/04/14 00:55:29;;;;;;;20.90;11.95;;;22.20;59.30;;;;;;4840151;29;20454;-67
2023/04/14 00:57:56;;;;;;;17.70;11.65;;;22.10;59.40;;;;;;4840283;29;20184;-67
2023/04/14 01:00:22;;;;;;;15.07;11.20;;;22.10;59.40;;;;;;4848413;29;20080;-67
2023/04/14 01:02:48;;;;;;;22.30;12.80;;;22.10;59.50;;;;;;4857257;29;20037;-67
2023/04/14 01:05:14;;;;;;;17.23;12.10;;;22.10;59.50;;;;;;4858628;29;20461;-67
2023/04/14 01:07:40;;;;;;;19.25;12.82;;;22.00;59.50;;;;;;4858698;29;20076;-67
2023/04/14 01:10:09;;;;;;;17.63;11.98;;;22.00;59.50;;;;;;4858436;29;20040;-67
2023/04/14 01:13:06;;;;;;;19.75;14.23;;;21.90;59.40;;;;;;4856951;29;20379;-67
2023/04/14 01:15:50;;;;;;;20.08;12.68;;;21.90;59.30;;;;;;4858486;29;20052;-67
2023/04/14 01:18:40;;;;;;;17.15;12.27;;;22.00;59.40;;;;;;4857246;29;20033;-67
2023/04/14 01:21:15;;;;;;;20.50;12.38;;;21.90;59.30;;;;;;4858080;29;20475;-67
2023/04/14 01:23:59;;;;;;;17.58;12.50;;;21.90;59.30;;;;;;4857150;29;20045;-67
2023/04/14 01:26:29;;;;;;;17.33;11.57;;;21.90;59.30;;;;;;4861715;29;20075;-67
2023/04/14 01:29:02;;;;;;;18.73;12.93;;;22.00;59.20;;;;;;4828954;29;20158;-67
2023/04/14 01:31:35;;;;;;;16.27;12.20;;;21.90;59.20;;;;;;4860589;29;20050;-67
2023/04/14 01:34:22;;;;;;;18.08;12.27;;;21.90;59.20;;;;;;4861626;29;20153;-67
2023/04/14 01:36:53;;;;;;;17.35;11.85;;;21.90;59.20;;;;;;4860393;29;20069;-67
2023/04/14 01:39:23;;;;;;;21.00;13.02;;;22.00;59.30;;;;;;4860292;29;20040;-67
2023/04/14 01:41:57;;;;;;;21.00;14.98;;;21.80;59.20;;;;;;4840309;29;20050;-67
2023/04/14 01:44:25;;;;;;;19.15;13.15;;;21.80;59.10;;;;;;4825651;29;20054;-67
2023/04/14 01:46:55;;;;;;;21.63;12.95;;;21.80;59.10;;;;;;4840855;29;20113;-67
2023/04/14 01:49:23;;;;;;;19.98;13.57;;;21.80;59.00;;;;;;4825528;29;20038;-66
2023/04/14 01:51:51;;;;;;;21.02;13.07;;;21.90;59.00;;;;;;4840733;29;20041;-67
2023/04/14 01:54:19;;;;;;;19.88;14.15;;;22.00;59.00;;;;;;4840593;29;20132;-68
2023/04/14 01:56:46;;;;;;;23.55;12.63;;;21.80;58.70;;;;;;4840941;29;20133;-67
2023/04/14 01:59:14;;;;;;;21.98;13.40;;;21.90;58.80;;;;;;4840543;29;20080;-66
2023/04/14 02:01:43;;;;;;;18.48;13.13;;;21.90;58.80;;;;;;4825310;29;20046;-66
2023/04/14 02:04:09;;;;;;;18.85;13.05;;;22.00;58.80;;;;;;4840652;29;20053;-67
2023/04/14 02:06:37;;;;;;;18.38;12.70;;;21.90;58.90;;;;;;4840362;29;20073;-67
2023/04/14 02:09:09;;;;;;;16.88;12.77;;;22.00;58.90;;;;;;4840462;29;20054;-64
2023/04/14 02:11:36;;;;;;;22.80;14.00;;;21.80;58.80;;;;;;4840315;29;20038;-66
2023/04/14 02:14:04;;;;;;;25.15;14.07;;;21.90;58.90;;;;;;4825046;29;20061;-65
2023/04/14 02:16:32;;;;;;;19.80;12.63;;;21.90;59.00;;;;;;4840273;29;20101;-66
2023/04/14 02:19:00;;;;;;;17.58;10.90;;;21.70;58.80;;;;;;4848337;29;20383;-66
2023/04/14 02:21:29;;;;;;;15.65;11.57;;;21.70;58.90;;;;;;4859570;29;20107;-66
2023/04/14 02:23:55;;;;;;;15.73;11.57;;;21.80;59.00;;;;;;4860893;29;20041;-67
2023/04/14 02:26:29;;;;;;;17.40;11.48;;;21.70;59.00;;;;;;4859579;29;20112;-66
2023/04/14 02:29:11;;;;;;;18.67;11.30;;;21.60;58.80;;;;;;4860903;29;20045;-66
2023/04/14 02:31:50;;;;;;;20.38;11.23;;;21.60;58.90;;;;;;4848599;29;20042;-66
2023/04/14 02:34:22;;;;;;;17.75;12.13;;;21.60;59.00;;;;;;4840426;29;20069;-67
2023/04/14 02:36:54;;;;;;;17.65;12.32;;;21.60;59.00;;;;;;4841825;29;20140;-66
2023/04/14 02:39:27;;;;;;;21.75;12.27;;;21.60;58.90;;;;;;4841343;29;20041;-67
2023/04/14 02:42:12;;;;;;;17.33;12.05;;;21.60;58.80;;;;;;4842231;29;20049;-67
2023/04/14 02:44:57;;;;;;;17.50;11.57;;;21.80;58.90;;;;;;4842079;29;20045;-66
2023/04/14 02:47:31;;;;;;;15.15;10.32;;;21.60;58.70;;;;;;4842272;29;20066;-67
2023/04/14 02:50:01;;;;;;;15.20;10.40;;;21.70;58.70;;;;;;4840872;29;20037;-67
2023/04/14 02:52:31;;;;;;;16.73;11.65;;;21.60;58.60;;;;;;4806010;29;20054;-66
2023/04/14 02:54:59;;;;;;;18.42;12.65;;;21.60;58.60;;;;;;4821317;29;20050;-67
2023/04/14 02:57:26;;;;;;;20.10;12.48;;;21.60;58.70;;;;;;4821441;29;20121;-66
2023/04/14 02:59:54;;;;;;;22.90;12.70;;;21.60;58.70;;;;;;4830472;29;20042;-66
2023/04/14 03:02:21;;;;;;;24.15;13.27;;;21.60;58.60;;;;;;4824045;29;20428;-66
2023/04/14 03:04:57;;;;;;;17.77;12.98;;;21.60;58.60;;;;;;4824140;29;20061;-67
2023/04/14 03:07:34;;;;;;;16.77;11.32;;;21.50;58.50;;;;;;4810183;29;20066;-67
2023/04/14 03:10:00;;;;;;;18.08;12.02;;;21.50;58.40;;;;;;4839347;29;20038;-66
2023/04/14 03:12:28;;;;;;;22.95;12.02;;;21.60;58.40;;;;;;4839262;29;20197;-67
2023/04/14 03:14:55;;;;;;;21.77;12.40;;;21.60;58.30;;;;;;4839414;29;20042;-65
2023/04/14 03:17:22;;;;;;;26.83;11.50;;;21.60;58.30;;;;;;4839504;29;20045;-66
2023/04/14 03:19:51;;;;;;;17.20;11.95;;;21.50;58.20;;;;;;4824168;29;20041;-66
2023/04/14 03:22:19;;;;;;;17.23;11.63;;;21.70;58.20;;;;;;4824026;29;20042;-67
2023/04/14 03:24:46;;;;;;;18.20;12.25;;;21.50;58.30;;;;;;4858680;29;20068;-66
2023/04/14 03:27:20;;;;;;;22.42;12.10;;;21.50;58.40;;;;;;4858578;29;20041;-67
2023/04/14 03:29:51;;;;;;;20.02;12.05;;;21.60;58.20;;;;;;4858749;29;20053;-66
2023/04/14 03:32:21;;;;;;;16.50;12.50;;;21.50;58.20;;;;;;4859740;29;20037;-67
2023/04/14 03:34:53;;;;;;;20.40;13.20;;;21.40;58.20;;;;;;4858445;29;20036;-66
2023/04/14 03:37:24;;;;;;;24.07;14.23;;;21.30;58.20;;;;;;4858429;29;20447;-66
2023/04/14 03:39:52;;;;;;;18.75;13.95;;;21.30;58.20;;;;;;4858457;29;20325;-66
2023/04/14 03:42:23;;;;;;;19.20;13.25;;;21.40;58.20;;;;;;4858378;29;20029;-67
2023/04/14 03:44:53;;;;;;;18.20;13.10;;;21.50;58.20;;;;;;4857025;29;20054;-66
2023/04/14 03:47:23;;;;;;;20.10;13.63;;;21.40;58.10;;;;;;4841268;29;20050;-66
2023/04/14 03:49:55;;;;;;;18.27;12.77;;;21.30;58.30;;;;;;4801794;29;20058;-67
2023/04/14 03:52:22;;;;;;;24.77;11.23;;;21.30;58.10;;;;;;4786967;29;20427;-65
2023/04/14 03:54:52;;;;;;;22.48;11.48;;;21.40;58.30;;;;;;4802368;29;20095;-66
2023/04/14 03:57:21;;;;;;;17.77;10.15;;;21.60;57.90;;;;;;4786950;29;20439;-66
2023/04/14 03:59:49;;;;;;;14.82;9.93;;;21.80;57.30;;;;;;4787042;29;20177;-67
2023/04/14 04:02:21;;;;;;;16.58;11.35;;;22.00;56.90;;;;;;4786916;29;20054;-66
2023/04/14 04:04:48;;;;;;;21.27;12.63;;;22.20;56.70;;;;;;4786663;29;20571;-66
2023/04/14 04:07:16;;;;;;;19.25;12.48;;;22.00;56.30;;;;;;4787204;29;20492;-67
2023/04/14 04:09:44;;;;;;;18.20;13.05;;;22.10;56.60;;;;;;4787068;29;20525;-66
2023/04/14 04:12:12;;;;;;;41.97;19.23;;;22.20;63.30;;;;;;4786748;29;20038;-65
2023/04/14 04:14:41;;;;;;;209.95;58.67;;;22.40;54.30;;;;;;4802253;29;20046;-64
2023/04/14 04:17:13;;;;;;;160.10;47.33;;;22.30;51.40;;;;;;4804916;29;20461;-64
2023/04/14 04:19:42;;;;;;;18.60;7.60;;;22.40;51.00;;;;;;4805767;29;20090;-67
2023/04/14 04:22:13;;;;;;;35.13;13.18;;;22.60;58.70;;;;;;4857776;29;20068;-67
2023/04/14 04:24:40;;;;;;;39.08;12.20;;;22.80;56.00;;;;;;4858963;29;20045;-67
2023/04/14 04:27:10;;;;;;;30.08;9.85;;;23.20;55.60;;;;;;4857742;29;20413;-65
2023/04/14 04:29:37;;;;;;;43.15;15.00;;;23.20;54.20;;;;;;4857970;29;20037;-67
2023/04/14 04:32:05;;;;;;;28.90;17.08;;;23.40;53.10;;;;;;4857457;29;20061;-66
2023/04/14 04:34:32;;;;;;;27.92;18.45;;;23.50;49.00;;;;;;4847015;29;20479;-64
2023/04/14 04:37:02;;;;;;;38.72;17.50;;;23.40;47.20;;;;;;4823757;29;20049;-67
2023/04/14 04:39:29;;;;;;;25.65;16.30;;;23.30;47.30;;;;;;4839112;29;20034;-66
2023/04/14 04:42:05;;;;;;;24.70;15.25;;;23.20;47.80;;;;;;4839031;29;20038;-66
2023/04/14 04:44:33;;;;;;;27.15;15.70;;;23.10;50.10;;;;;;4840138;29;20503;-65
2023/04/14 04:47:00;;;;;;;25.98;16.98;;;23.10;49.90;;;;;;4807738;29;20090;-66
2023/04/14 04:49:27;;;;;;;34.85;16.60;;;23.20;49.90;;;;;;4839021;29;20048;-65
2023/04/14 04:51:55;;;;;;;36.72;16.52;;;23.20;50.40;;;;;;4839159;29;20038;-66
2023/04/14 04:54:22;;;;;;;33.42;15.52;;;23.10;50.90;;;;;;4839063;29;20042;-65
2023/04/14 04:56:48;;;;;;;23.00;13.82;;;23.10;50.30;;;;;;4842836;29;20129;-65
2023/04/14 04:59:15;;;;;;;21.40;14.77;;;23.20;46.80;;;;;;4840884;29;20453;-65
2023/04/14 05:01:41;;;;;;;28.30;16.88;;;23.20;46.70;;;;;;4843942;29;20152;-66
2023/04/14 05:04:07;;;;;;;26.77;15.95;;;23.10;53.80;;;;;;4844045;29;20065;-65
2023/04/14 05:06:37;;;;;;;25.52;16.13;;;23.20;46.90;;;;;;4843615;29;20054;-67
2023/04/14 05:09:04;;;;;;;28.33;15.38;;;23.30;46.90;;;;;;4844120;29;20038;-67
2023/04/14 05:11:30;;;;;;;22.75;14.50;;;23.10;50.00;;;;;;4844192;29;20053;-65
2023/04/14 05:13:56;;;;;;;19.17;11.45;;;23.20;46.90;;;;;;4844014;29;20044;-65
2023/04/14 05:16:23;;;;;;;15.63;9.98;;;23.10;48.80;;;;;;4843587;29;20483;-66
2023/04/14 05:18:49;;;;;;;24.50;12.57;;;23.20;47.00;;;;;;4843711;29;20820;-66
2023/04/14 05:21:15;;;;;;;20.27;14.15;;;23.10;47.60;;;;;;4843583;29;20038;-66
2023/04/14 05:23:43;;;;;;;23.73;13.98;;;23.10;46.50;;;;;;4843754;29;20124;-64
2023/04/14 05:26:11;;;;;;;24.08;14.88;;;23.20;47.30;;;;;;4842241;29;20045;-64
2023/04/14 05:28:38;;;;;;;24.02;16.75;;;23.10;47.40;;;;;;4842383;29;20064;-65
2023/04/14 05:31:04;;;;;;;24.65;15.48;;;23.00;47.30;;;;;;4843715;29;20042;-65
2023/04/14 05:33:30;;;;;;;25.25;17.30;;;23.10;48.60;;;;;;4843299;29;20038;-66
2023/04/14 05:35:56;;;;;;;21.33;15.27;;;23.20;49.40;;;;;;4843476;29;20033;-65
2023/04/14 05:38:22;;;;;;;23.40;16.05;;;23.20;52.20;;;;;;4842515;29;20079;-65
2023/04/14 05:40:49;;;;;;;29.92;17.38;;;23.40;49.50;;;;;;4843684;29;20037;-65
2023/04/14 05:43:16;;;;;;;22.10;16.27;;;23.50;52.00;;;;;;4843232;29;20363;-65
2023/04/14 05:45:42;;;;;;;35.78;18.75;;;23.60;51.20;;;;;;4840688;29;20054;-65
2023/04/14 05:48:08;;;;;;;29.02;17.83;;;23.50;51.20;;;;;;4840938;29;20057;-64
2023/04/14 05:50:36;;;;;;;29.27;17.60;;;23.60;50.90;;;;;;4840750;29;20050;-65
2023/04/14 05:53:02;;;;;;;30.85;16.77;;;23.60;49.50;;;;;;4825422;29;20057;-67
2023/04/14 05:55:29;;;;;;;11.60;5.53;;;23.60;48.10;;;;;;4840266;29;20080;-66
2023/04/14 05:57:55;;;;;;;6.45;3.80;;;23.60;54.20;;;;;;4840621;29;20038;-64
2023/04/14 06:00:23;;;;;;;5.18;3.03;;;23.70;55.20;;;;;;4840604;29;20581;-67
2023/04/14 06:02:52;;;;;;;12.48;4.57;;;23.80;53.90;;;;;;4840886;29;20042;-67
2023/04/14 06:05:19;;;;;;;18.58;11.27;;;23.80;52.60;;;;;;4821458;29;20065;-66
2023/04/14 06:07:45;;;;;;;17.13;10.80;;;23.70;52.80;;;;;;4822244;29;20051;-66
2023/04/14 06:10:12;;;;;;;15.13;10.50;;;23.90;52.20;;;;;;4821996;29;20123;-65
2023/04/14 06:12:38;;;;;;;14.52;9.07;;;23.70;52.00;;;;;;4821239;29;20051;-67
2023/04/14 06:15:05;;;;;;;12.43;9.15;;;23.80;52.30;;;;;;4822099;29;20039;-67
2023/04/14 06:17:31;;;;;;;16.40;9.75;;;23.80;52.70;;;;;;4807143;29;20069;-68
2023/04/14 06:19:58;;;;;;;15.05;9.43;;;23.70;52.80;;;;;;4822236;29;20121;-64
2023/04/14 06:22:28;;;;;;;15.40;8.55;;;23.70;53.30;;;;;;4822097;29;20038;-67
2023/04/14 06:24:58;;;;;;;17.42;10.40;;;23.80;54.20;;;;;;4822019;29;20098;-66
2023/04/14 06:27:24;;;;;;;13.70;8.68;;;23.80;54.50;;;;;;4822053;29;20038;-67
2023/04/14 06:29:50;;;;;;;15.07;9.85;;;23.60;54.60;;;;;;4822069;29;20038;-66
2023/04/14 06:32:19;;;;;;;18.08;11.73;;;23.70;55.50;;;;;;4821903;29;20520;-66
2023/04/14 06:34:49;;;;;;;16.52;10.18;;;23.70;54.70;;;;;;4821971;29;20125;-67
2023/04/14 06:37:15;;;;;;;11.32;6.63;;;23.70;54.80;;;;;;4806759;29;20070;-65
2023/04/14 06:39:42;;;;;;;14.18;8.63;;;23.70;55.00;;;;;;4821738;29;20499;-65
2023/04/14 06:42:11;;;;;;;17.00;8.63;;;23.50;54.90;;;;;;4826559;29;20081;-67
2023/04/14 06:44:39;;;;;;;10.00;7.32;;;23.60;55.40;;;;;;4841263;29;20038;-68
2023/04/14 06:47:05;;;;;;;12.10;8.00;;;23.70;55.30;;;;;;4842349;29;20046;-67
2023/04/14 06:49:31;;;;;;;11.70;7.15;;;23.70;54.90;;;;;;4842072;29;20482;-67
2023/04/14 06:51:57;;;;;;;8.98;7.13;;;23.70;54.80;;;;;;4840979;29;20042;-67
2023/04/14 06:54:23;;;;;;;10.80;7.43;;;23.70;54.60;;;;;;4840832;29;20049;-67
2023/04/14 06:56:49;;;;;;;12.90;7.00;;;23.80;55.00;;;;;;4841834;29;20062;-68
2023/04/14 06:59:15;;;;;;;10.25;6.43;;;23.80;54.90;;;;;;4842330;29;20038;-68
2023/04/14 07:01:41;;;;;;;16.48;7.50;;;23.70;55.00;;;;;;4841695;29;20483;-68
2023/04/14 07:04:08;;;;;;;11.50;7.28;;;23.70;54.60;;;;;;4844352;29;20042;-67
2023/04/14 07:06:34;;;;;;;9.45;8.50;;;23.70;54.70;;;;;;4841841;29;20391;-70
2023/04/14 07:09:00;;;;;;;11.25;6.57;;;23.70;54.80;;;;;;4842300;29;20036;-68
2023/04/14 07:11:26;;;;;;;10.85;6.97;;;23.70;54.80;;;;;;4841963;29;20038;-69
2023/04/14 07:13:52;;;;;;;13.93;8.23;;;23.80;54.90;;;;;;4840911;29;20490;-68
2023/04/14 07:16:18;;;;;;;9.00;7.18;;;23.80;55.10;;;;;;4841855;29;20052;-67
2023/04/14 07:18:44;;;;;;;9.85;7.07;;;23.80;55.10;;;;;;4841931;29;20187;-68
2023/04/14 07:21:10;;;;;;;9.23;6.25;;;23.70;55.00;;;;;;4841701;29;20030;-68
2023/04/14 07:23:36;;;;;;;10.75;6.50;;;23.70;55.10;;;;;;4841603;29;20151;-68
2023/04/14 07:26:04;;;;;;;10.90;6.72;;;23.70;55.10;;;;;;4841281;29;20145;-69
2023/04/14 07:28:31;;;;;;;9.43;6.53;;;23.60;55.20;;;;;;4841580;29;20038;-68
2023/04/14 07:30:57;;;;;;;10.68;6.65;;;23.70;55.20;;;;;;4841599;29;20057;-69
2023/04/14 07:33:24;;;;;;;9.65;7.03;;;23.70;55.60;;;;;;4841617;29;20033;-68
2023/04/14 07:35:51;;;;;;;10.43;7.03;;;23.70;56.10;;;;;;4841332;29;20517;-67
2023/04/14 07:38:18;;;;;;;7.82;6.45;;;23.50;56.10;;;;;;4839907;29;20441;-67
2023/04/14 07:40:44;;;;;;;10.30;6.45;;;23.50;56.40;;;;;;4841167;29;20054;-67
2023/04/14 07:43:11;;;;;;;7.80;6.35;;;23.50;56.50;;;;;;4841532;29;20037;-64
2023/04/14 07:45:38;;;;;;;13.43;6.70;;;23.60;56.40;;;;;;4841438;29;20121;-66
2023/04/14 07:48:04;;;;;;;13.10;6.53;;;23.50;56.60;;;;;;4841339;29;20044;-66
2023/04/14 07:50:30;;;;;;;9.02;5.55;;;23.50;56.90;;;;;;4840149;29;20082;-67
2023/04/14 07:52:58;;;;;;;9.60;6.05;;;23.50;56.90;;;;;;4839974;29;20042;-67
2023/04/14 07:55:25;;;;;;;7.22;6.05;;;23.70;56.40;;;;;;4839656;29;20812;-68
2023/04/14 07:57:51;;;;;;;8.48;6.20;;;23.70;56.80;;;;;;4833830;29;20042;-70
2023/04/14 08:00:17;;;;;;;9.23;6.25;;;23.60;56.90;;;;;;4821373;29;20046;-68
2023/04/14 08:02:43;;;;;;;9.75;7.32;;;23.60;57.20;;;;;;4822851;29;20126;-69
2023/04/14 08:05:09;;;;;;;8.80;5.95;;;23.50;55.90;;;;;;4822413;29;20123;-68
2023/04/14 08:07:35;;;;;;;11.00;5.85;;;23.60;57.50;;;;;;4822560;29;20050;-69
2023/04/14 08:10:02;;;;;;;9.98;6.20;;;23.50;59.00;;;;;;4822499;29;20038;-70
2023/04/14 08:12:28;;;;;;;8.90;6.40;;;23.70;60.10;;;;;;4821493;29;20483;-70
2023/04/14 08:14:57;;;;;;;13.20;6.60;;;23.50;60.40;;;;;;4822525;29;20070;-67
2023/04/14 08:17:23;;;;;;;10.05;5.32;;;23.60;57.80;;;;;;4821271;29;20038;-66
2023/04/14 08:19:49;;;;;;;6.93;4.85;;;23.60;59.30;;;;;;4822176;29;20083;-66
2023/04/14 08:22:15;;;;;;;7.95;4.45;;;23.70;59.80;;;;;;4822140;29;20480;-64
2023/04/14 08:24:41;;;;;;;10.10;6.72;;;23.60;59.90;;;;;;4819846;29;20051;-67
2023/04/14 08:27:07;;;;;;;5.65;4.35;;;23.70;61.30;;;;;;4819719;29;20073;-66
2023/04/14 08:29:33;;;;;;;8.05;5.25;;;23.70;61.00;;;;;;4819864;29;20392;-65
2023/04/14 08:32:00;;;;;;;7.97;5.95;;;23.60;60.70;;;;;;4850172;29;20098;-67
2023/04/14 08:34:26;;;;;;;11.85;6.43;;;23.70;60.20;;;;;;4855896;29;20596;-67
2023/04/14 08:36:51;;;;;;;6.93;5.25;;;23.60;59.60;;;;;;4856143;29;20042;-67
2023/04/14 08:39:18;;;;;;;9.02;5.60;;;23.80;59.20;;;;;;4856556;29;20077;-66
2023/04/14 08:41:44;;;;;;;11.38;5.57;;;23.80;59.20;;;;;;4855994;29;20121;-67
2023/04/14 08:44:10;;;;;;;5.85;4.68;;;23.70;59.00;;;;;;4839934;29;20054;-62
2023/04/14 08:46:36;;;;;;;8.70;5.53;;;23.70;58.80;;;;;;4837583;29;20046;-65
2023/04/14 08:49:05;;;;;;;10.20;7.80;;;23.80;58.10;;;;;;4837797;29;20050;-65
2023/04/14 08:51:34;;;;;;;6.35;5.03;;;23.80;57.90;;;;;;4837738;29;20042;-66
2023/04/14 08:54:03;;;;;;;8.07;6.47;;;23.80;57.80;;;;;;4846615;29;20073;-66
2023/04/14 08:56:42;;;;;;;7.18;4.63;;;23.70;58.10;;;;;;4858058;29;20061;-66
2023/04/14 08:59:10;;;;;;;4.88;4.20;;;23.80;53.10;;;;;;4858574;29;20152;-65
2023/04/14 09:01:37;;;;;;;6.78;5.32;;;23.90;49.90;;;;;;4857382;29;20049;-65
2023/04/14 09:04:04;;;;;;;5.22;4.68;;;23.90;48.10;;;;;;4858613;29;20069;-66
2023/04/14 09:06:31;;;;;;;8.20;5.38;;;23.90;47.00;;;;;;4858175;29;20062;-66
2023/04/14 09:09:00;;;;;;;6.55;5.25;;;24.00;45.80;;;;;;4858481;29;20069;-67
2023/04/14 09:11:27;;;;;;;6.18;4.80;;;24.00;48.80;;;;;;4872025;29;20053;-65
2023/04/14 09:13:57;;;;;;;6.07;2.38;;;23.90;52.30;;;;;;4858702;29;20128;-65
2023/04/14 09:16:25;;;;;;;7.82;4.65;;;24.10;54.40;;;;;;4858628;29;20045;-66
2023/04/14 09:18:55;;;;;;;8.45;4.80;;;24.00;51.40;;;;;;4858473;29;20486;-65
2023/04/14 09:21:22;;;;;;;6.88;3.97;;;24.10;46.40;;;;;;4858455;29;20052;-66
2023/04/14 09:23:49;;;;;;;6.10;4.63;;;24.00;46.20;;;;;;4858384;29;20029;-66
2023/04/14 09:26:15;;;;;;;8.20;4.88;;;23.80;47.90;;;;;;4858168;29;20181;-65
2023/04/14 09:28:41;;;;;;;7.47;5.00;;;24.10;46.60;;;;;;4858500;29;20045;-65
2023/04/14 09:31:09;;;;;;;10.50;5.03;;;24.20;47.40;;;;;;4858161;29;20122;-63
2023/04/14 09:33:42;;;;;;;7.50;4.28;;;24.20;48.80;;;;;;4858625;29;20511;-66
2023/04/14 09:36:28;;;;;;;;;;;24.30;55.00;;;;;;4858758;29;20124;-66
2023/04/14 09:38:54;;;;;;;6.95;4.07;;;24.50;56.00;;;;;;4856804;29;19912;-66
2023/04/14 09:41:22;;;;;;;7.50;4.47;;;24.30;56.20;;;;;;4858449;29;20041;-65
2023/04/14 09:43:49;;;;;;;4.00;3.28;;;24.40;56.60;;;;;;4858494;29;20510;-67
2023/04/14 09:46:15;;;;;;;6.45;4.03;;;24.50;56.90;;;;;;4860072;29;20190;-67
2023/04/14 09:48:54;;;;;;;4.30;3.15;;;24.40;57.00;;;;;;4861745;29;20737;-65
2023/04/14 09:51:22;;;;;;;4.10;3.22;;;24.40;55.60;;;;;;4861642;29;20064;-70
2023/04/14 09:53:51;;;;;;;3.70;2.90;;;24.40;57.00;;;;;;4861635;29;20046;-68
2023/04/14 09:56:17;;;;;;;6.72;3.88;;;24.40;57.30;;;;;;4861379;29;20414;-67
2023/04/14 09:58:44;;;;;;;5.25;3.63;;;24.30;57.60;;;;;;4861690;29;20374;-70
2023/04/14 10:01:18;;;;;;;4.72;3.65;;;24.30;57.30;;;;;;4861281;29;20045;-68
2023/04/14 10:03:48;;;;;;;6.82;4.55;;;24.40;57.80;;;;;;4861716;29;20629;-66
2023/04/14 10:06:17;;;;;;;5.05;3.63;;;24.30;62.40;;;;;;4861474;29;20544;-68
2023/04/14 10:08:47;;;;;;;8.18;3.72;;;24.60;64.30;;;;;;4828267;29;20502;-68
2023/04/14 10:11:13;;;;;;;5.10;3.88;;;24.90;70.80;;;;;;4858975;29;20136;-66
2023/04/14 10:13:40;;;;;;;4.70;3.42;;;25.10;74.50;;;;;;4859073;29;20601;-66
2023/04/14 10:16:06;;;;;;;6.18;3.42;;;25.00;63.90;;;;;;4858693;29;20037;-65
2023/04/14 10:18:32;;;;;;;4.35;3.53;;;24.90;49.40;;;;;;4859046;29;20145;-66
2023/04/14 10:21:00;;;;;;;3.80;3.33;;;24.80;58.90;;;;;;4859014;29;20433;-64
2023/04/14 10:23:26;;;;;;;5.13;3.35;;;24.80;60.10;;;;;;4839331;29;20909;-65
2023/04/14 10:25:54;;;;;;;4.22;3.30;;;24.80;53.20;;;;;;4832992;29;20121;-68
2023/04/14 10:28:22;;;;;;;5.20;3.88;;;24.90;55.40;;;;;;4822713;29;20582;-68
2023/04/14 10:30:51;;;;;;;4.07;3.17;;;25.00;54.60;;;;;;4837551;29;20170;-68
2023/04/14 10:33:18;;;;;;;5.05;3.67;;;25.00;47.10;;;;;;4854894;29;20049;-69
2023/04/14 10:35:47;;;;;;;7.13;3.22;;;25.00;60.50;;;;;;4851372;29;20493;-66
2023/04/14 10:38:13;;;;;;;4.30;3.53;;;24.90;59.60;;;;;;4839830;29;20106;-67
2023/04/14 10:40:52;;;;;;;4.28;3.47;;;24.90;59.10;;;;;;4842123;29;20046;-67
2023/04/14 10:43:18;;;;;;;4.13;2.90;;;24.90;59.00;;;;;;4841860;29;20376;-68
2023/04/14 10:45:57;;;;;;;3.17;2.72;;;24.80;59.00;;;;;;4842108;29;20057;-67
2023/04/14 10:48:24;;;;;;;4.05;2.85;;;24.80;58.70;;;;;;4842061;29;20040;-67
2023/04/14 10:50:55;;;;;;;4.57;3.13;;;24.80;58.60;;;;;;4842342;29;20507;-68
2023/04/14 10:53:24;;;;;;;4.72;3.33;;;24.80;58.80;;;;;;4841135;29;20034;-68
2023/04/14 10:55:54;;;;;;;6.95;3.42;;;24.90;58.90;;;;;;4842312;29;20034;-68
2023/04/14 10:58:22;;;;;;;1.65;1.55;;;24.80;58.70;;;;;;4841582;29;20113;-67
2023/04/14 11:00:48;;;;;;;3.47;3.08;;;24.70;58.70;;;;;;4841774;29;20106;-67
2023/04/14 11:03:16;;;;;;;3.80;3.28;;;24.80;58.30;;;;;;4847694;29;20110;-67
2023/04/14 11:05:51;;;;;;;5.05;3.55;;;24.70;58.90;;;;;;4841895;29;20344;-69
2023/04/14 11:08:33;;;;;;;2.83;2.35;;;24.80;58.80;;;;;;4841480;29;20045;-68
2023/04/14 11:11:01;;;;;;;3.17;2.35;;;24.70;59.10;;;;;;4842065;29;20422;-68
2023/04/14 11:13:29;;;;;;;4.38;2.15;;;24.70;59.50;;;;;;4841654;29;20158;-65
2023/04/14 11:16:07;;;;;;;3.33;2.20;;;24.70;59.60;;;;;;4841511;29;20574;-65
2023/04/14 11:18:37;;;;;;;3.88;2.85;;;24.60;59.00;;;;;;4829895;29;20038;-64
2023/04/14 11:21:07;;;;;;;2.22;2.03;;;24.60;59.20;;;;;;4841554;29;20034;-65
2023/04/14 11:23:35;;;;;;;3.45;2.55;;;24.60;59.20;;;;;;4841190;29;20153;-64
2023/04/14 11:26:03;;;;;;;4.30;2.88;;;24.60;59.20;;;;;;4841632;29;20470;-64
2023/04/14 11:28:31;;;;;;;2.95;2.58;;;24.50;59.00;;;;;;4840083;29;20045;-64
2023/04/14 11:30:59;;;;;;;4.30;2.88;;;24.50;59.40;;;;;;4841457;29;20071;-64
2023/04/14 11:33:43;;;;;;;2.38;2.17;;;24.60;59.70;;;;;;4840896;29;20137;-63
2023/04/14 11:36:11;;;;;;;4.40;2.58;;;24.50;59.30;;;;;;4841291;29;20457;-64
2023/04/14 11:38:39;;;;;;;6.18;2.90;;;24.40;58.90;;;;;;4841395;29;20041;-63
2023/04/14 11:41:06;;;;;;;6.10;2.65;;;24.30;61.10;;;;;;4841436;29;20050;-66
2023/04/14 11:43:32;;;;;;;4.63;2.97;;;24.30;62.50;;;;;;4840886;29;20506;-64
2023/04/14 11:46:02;;;;;;;3.30;2.67;;;24.30;58.60;;;;;;4840028;29;20038;-64
2023/04/14 11:48:28;;;;;;;2.50;2.30;;;24.40;61.80;;;;;;4841065;29;20068;-64
2023/04/14 11:51:01;;;;;;;6.22;3.00;;;24.30;59.10;;;;;;4841281;29;20041;-64
2023/04/14 11:53:27;;;;;;;3.10;2.58;;;24.30;57.60;;;;;;4840550;29;20517;-65
2023/04/14 11:55:53;;;;;;;3.38;2.70;;;24.20;59.50;;;;;;4840895;29;20093;-65
2023/04/14 11:58:25;;;;;;;6.47;2.33;;;24.30;59.90;;;;;;4840877;29;20034;-65
2023/04/14 12:00:53;;;;;;;2.78;2.53;;;24.30;58.20;;;;;;4840984;29;20062;-65
2023/04/14 12:03:20;;;;;;;3.78;2.38;;;24.30;59.30;;;;;;4840359;29;20042;-65
2023/04/14 12:05:47;;;;;;;2.97;1.85;;;24.20;59.00;;;;;;4840534;29;20137;-65
2023/04/14 12:08:13;;;;;;;3.33;1.77;;;24.30;56.60;;;;;;4840960;29;20034;-65
2023/04/14 12:10:44;;;;;;;2.78;2.00;;;24.30;59.80;;;;;;4839674;29;20507;-63
2023/04/14 12:13:11;;;;;;;2.58;1.88;;;24.30;60.30;;;;;;4839102;29;20053;-63
2023/04/14 12:15:41;;;;;;;5.15;3.20;;;24.30;59.10;;;;;;4840830;29;20061;-64
2023/04/14 12:18:09;;;;;;;3.17;2.00;;;24.40;59.80;;;;;;4840189;29;20038;-63
2023/04/14 12:20:45;;;;;;;2.63;2.15;;;24.30;59.60;;;;;;4840487;29;20117;-64
2023/04/14 12:23:11;;;;;;;2.40;1.98;;;24.40;59.40;;;;;;4840293;29;20490;-63
2023/04/14 12:25:38;;;;;;;2.13;2.00;;;24.40;60.60;;;;;;4840778;29;20081;-64
2023/04/14 12:28:05;;;;;;;2.20;2.00;;;24.30;60.80;;;;;;4839979;29;20059;-65
2023/04/14 12:30:32;;;;;;;3.05;2.00;;;24.50;61.10;;;;;;4840549;29;20518;-64
2023/04/14 12:33:05;;;;;;;2.08;1.73;;;24.50;60.80;;;;;;4837476;29;20022;-64
2023/04/14 12:35:34;;;;;;;5.03;2.00;;;24.50;57.70;;;;;;4832135;29;20117;-64
2023/04/14 12:38:00;;;;;;;2.42;2.00;;;24.50;60.00;;;;;;4828637;29;20131;-64
2023/04/14 12:40:37;;;;;;;3.75;2.63;;;24.50;60.20;;;;;;4840491;29;20046;-63
2023/04/14 12:43:04;;;;;;;2.72;2.33;;;24.60;56.20;;;;;;4834725;29;20073;-64